sensor_id;sensor_type;location;lat;lon;timestamp;P1;durP1;ratioP1;P2;durP2;ratioP2
10687;SDS011;5392;42.688;23.298;2023-04-01T00:01:08;24.50;;;14.77;;
10687;SDS011;5392;42.688;23.298;2023-04-01T00:03:40;27.52;;;15.48;;
10687;SDS011;5392;42.688;23.298;2023-04-01T00:06:08;27.80;;;15.98;;
10687;SDS011;5392;42.688;23.298;2023-04-01T00:08:37;25.50;;;15.63;;
10687;SDS011;5392;42.688;23.298;2023-04-01T00:11:04;27.27;;;16.08;;
10687;SDS011;5392;42.688;23.298;2023-04-01T00:13:31;24.02;;;14.40;;
10687;SDS011;5392;42.688;23.298;2023-04-01T00:15:58;21.08;;;12.88;;
10687;SDS011;5392;42.688;23.298;2023-04-01T00:18:25;22.48;;;12.50;;
10687;SDS011;5392;42.688;23.298;2023-04-01T00:20:52;18.40;;;9.63;;
10687;SDS011;5392;42.688;23.298;2023-04-01T00:23:19;18.00;;;11.38;;
10687;SDS011;5392;42.688;23.298;2023-04-01T00:25:47;20.55;;;11.55;;
10687;SDS011;5392;42.688;23.298;2023-04-01T00:28:18;12.35;;;9.88;;
10687;SDS011;5392;42.688;23.298;2023-04-01T00:30:46;19.42;;;10.27;;
10687;SDS011;5392;42.688;23.298;2023-04-01T00:33:13;17.75;;;11.38;;
10687;SDS011;5392;42.688;23.298;2023-04-01T00:35:40;15.63;;;10.20;;
10687;SDS011;5392;42.688;23.298;2023-04-01T00:38:08;14.35;;;9.88;;
10687;SDS011;5392;42.688;23.298;2023-04-01T00:40:41;16.30;;;9.63;;
10687;SDS011;5392;42.688;23.298;2023-04-01T00:43:14;11.77;;;7.75;;
10687;SDS011;5392;42.688;23.298;2023-04-01T00:45:49;9.88;;;8.27;;
10687;SDS011;5392;42.688;23.298;2023-04-01T00:48:17;12.80;;;8.27;;
10687;SDS011;5392;42.688;23.298;2023-04-01T00:50:48;19.10;;;10.43;;
10687;SDS011;5392;42.688;23.298;2023-04-01T00:53:18;16.65;;;9.15;;
10687;SDS011;5392;42.688;23.298;2023-04-01T00:55:49;13.32;;;9.57;;
10687;SDS011;5392;42.688;23.298;2023-04-01T00:58:41;13.52;;;9.23;;
10687;SDS011;5392;42.688;23.298;2023-04-01T01:01:12;14.52;;;8.63;;
10687;SDS011;5392;42.688;23.298;2023-04-01T01:03:39;14.55;;;9.38;;
10687;SDS011;5392;42.688;23.298;2023-04-01T01:11:27;14.93;;;8.95;;
10687;SDS011;5392;42.688;23.298;2023-04-01T01:17:19;14.82;;;7.47;;
10687;SDS011;5392;42.688;23.298;2023-04-01T01:23:05;10.23;;;6.90;;
10687;SDS011;5392;42.688;23.298;2023-04-01T01:37:18;14.15;;;5.05;;
10687;SDS011;5392;42.688;23.298;2023-04-01T01:39:50;10.18;;;4.93;;
10687;SDS011;5392;42.688;23.298;2023-04-01T01:42:20;6.60;;;4.88;;
10687;SDS011;5392;42.688;23.298;2023-04-01T01:44:51;9.02;;;4.57;;
10687;SDS011;5392;42.688;23.298;2023-04-01T01:47:20;7.47;;;4.25;;
10687;SDS011;5392;42.688;23.298;2023-04-01T01:49:48;8.07;;;4.68;;
10687;SDS011;5392;42.688;23.298;2023-04-01T01:52:17;9.05;;;4.90;;
10687;SDS011;5392;42.688;23.298;2023-04-01T01:54:54;8.48;;;5.00;;
10687;SDS011;5392;42.688;23.298;2023-04-01T01:57:26;10.30;;;4.90;;
10687;SDS011;5392;42.688;23.298;2023-04-01T02:00:02;14.23;;;4.47;;
10687;SDS011;5392;42.688;23.298;2023-04-01T02:02:42;7.97;;;4.28;;
10687;SDS011;5392;42.688;23.298;2023-04-01T02:05:14;6.70;;;4.05;;
10687;SDS011;5392;42.688;23.298;2023-04-01T02:07:46;7.28;;;4.22;;
10687;SDS011;5392;42.688;23.298;2023-04-01T02:10:20;7.00;;;4.88;;
10687;SDS011;5392;42.688;23.298;2023-04-01T02:12:49;9.85;;;5.30;;
10687;SDS011;5392;42.688;23.298;2023-04-01T02:15:18;11.07;;;4.13;;
10687;SDS011;5392;42.688;23.298;2023-04-01T02:17:46;8.70;;;3.63;;
10687;SDS011;5392;42.688;23.298;2023-04-01T02:20:19;6.38;;;4.43;;
10687;SDS011;5392;42.688;23.298;2023-04-01T02:22:49;10.80;;;6.03;;
10687;SDS011;5392;42.688;23.298;2023-04-01T02:25:23;7.13;;;5.40;;
10687;SDS011;5392;42.688;23.298;2023-04-01T02:27:54;9.02;;;4.60;;
10687;SDS011;5392;42.688;23.298;2023-04-01T02:30:24;5.97;;;4.50;;
10687;SDS011;5392;42.688;23.298;2023-04-01T02:32:53;8.80;;;4.25;;
10687;SDS011;5392;42.688;23.298;2023-04-01T02:35:23;11.35;;;4.07;;
10687;SDS011;5392;42.688;23.298;2023-04-01T02:37:50;8.25;;;4.78;;
10687;SDS011;5392;42.688;23.298;2023-04-01T02:40:19;11.68;;;5.13;;
10687;SDS011;5392;42.688;23.298;2023-04-01T02:42:46;8.88;;;5.85;;
10687;SDS011;5392;42.688;23.298;2023-04-01T02:45:13;12.98;;;4.72;;
10687;SDS011;5392;42.688;23.298;2023-04-01T02:47:40;8.55;;;4.72;;
10687;SDS011;5392;42.688;23.298;2023-04-01T02:50:07;7.15;;;4.88;;
10687;SDS011;5392;42.688;23.298;2023-04-01T02:52:52;11.90;;;5.15;;
10687;SDS011;5392;42.688;23.298;2023-04-01T02:55:18;10.00;;;5.32;;
10687;SDS011;5392;42.688;23.298;2023-04-01T02:57:45;8.20;;;5.35;;
10687;SDS011;5392;42.688;23.298;2023-04-01T03:00:12;8.27;;;5.60;;
10687;SDS011;5392;42.688;23.298;2023-04-01T03:02:39;12.82;;;6.38;;
10687;SDS011;5392;42.688;23.298;2023-04-01T03:05:06;8.57;;;6.40;;
10687;SDS011;5392;42.688;23.298;2023-04-01T03:07:33;11.25;;;6.93;;
10687;SDS011;5392;42.688;23.298;2023-04-01T03:09:59;10.05;;;6.40;;
10687;SDS011;5392;42.688;23.298;2023-04-01T03:12:26;10.95;;;6.55;;
10687;SDS011;5392;42.688;23.298;2023-04-01T03:14:53;13.43;;;6.72;;
10687;SDS011;5392;42.688;23.298;2023-04-01T03:17:19;13.13;;;7.03;;
10687;SDS011;5392;42.688;23.298;2023-04-01T03:19:46;13.30;;;6.70;;
10687;SDS011;5392;42.688;23.298;2023-04-01T03:22:12;11.77;;;6.93;;
10687;SDS011;5392;42.688;23.298;2023-04-01T03:24:39;15.20;;;8.35;;
10687;SDS011;5392;42.688;23.298;2023-04-01T03:27:06;13.38;;;8.65;;
10687;SDS011;5392;42.688;23.298;2023-04-01T03:29:33;11.80;;;7.93;;
10687;SDS011;5392;42.688;23.298;2023-04-01T03:31:59;15.65;;;9.00;;
10687;SDS011;5392;42.688;23.298;2023-04-01T03:34:26;15.43;;;9.18;;
10687;SDS011;5392;42.688;23.298;2023-04-01T03:36:53;16.45;;;9.63;;
10687;SDS011;5392;42.688;23.298;2023-04-01T03:39:19;14.48;;;8.23;;
10687;SDS011;5392;42.688;23.298;2023-04-01T03:41:46;10.93;;;7.57;;
10687;SDS011;5392;42.688;23.298;2023-04-01T03:44:13;15.40;;;6.97;;
10687;SDS011;5392;42.688;23.298;2023-04-01T03:46:39;11.10;;;8.23;;
10687;SDS011;5392;42.688;23.298;2023-04-01T03:49:07;8.43;;;6.43;;
10687;SDS011;5392;42.688;23.298;2023-04-01T03:51:38;13.00;;;6.47;;
10687;SDS011;5392;42.688;23.298;2023-04-01T03:54:06;11.15;;;6.70;;
10687;SDS011;5392;42.688;23.298;2023-04-01T03:56:32;9.20;;;6.03;;
10687;SDS011;5392;42.688;23.298;2023-04-01T03:59:01;10.73;;;6.55;;
10687;SDS011;5392;42.688;23.298;2023-04-01T04:01:29;11.30;;;6.55;;
10687;SDS011;5392;42.688;23.298;2023-04-01T04:03:57;13.48;;;6.50;;
10687;SDS011;5392;42.688;23.298;2023-04-01T04:06:24;9.68;;;6.57;;
10687;SDS011;5392;42.688;23.298;2023-04-01T04:08:52;15.27;;;6.90;;
10687;SDS011;5392;42.688;23.298;2023-04-01T04:11:18;9.82;;;5.85;;
10687;SDS011;5392;42.688;23.298;2023-04-01T04:13:46;11.00;;;5.60;;
10687;SDS011;5392;42.688;23.298;2023-04-01T04:16:16;11.15;;;6.30;;
10687;SDS011;5392;42.688;23.298;2023-04-01T04:18:43;8.90;;;6.30;;
10687;SDS011;5392;42.688;23.298;2023-04-01T04:21:13;12.45;;;7.00;;
10687;SDS011;5392;42.688;23.298;2023-04-01T04:23:41;10.63;;;7.13;;
10687;SDS011;5392;42.688;23.298;2023-04-01T04:26:12;12.27;;;7.15;;
10687;SDS011;5392;42.688;23.298;2023-04-01T04:28:40;9.82;;;5.55;;
10687;SDS011;5392;42.688;23.298;2023-04-01T04:31:07;12.15;;;6.13;;
10687;SDS011;5392;42.688;23.298;2023-04-01T04:33:34;5.32;;;4.20;;
10687;SDS011;5392;42.688;23.298;2023-04-01T04:36:02;12.77;;;5.43;;
10687;SDS011;5392;42.688;23.298;2023-04-01T04:38:30;10.82;;;5.18;;
10687;SDS011;5392;42.688;23.298;2023-04-01T04:40:56;9.73;;;6.28;;
10687;SDS011;5392;42.688;23.298;2023-04-01T04:43:23;10.77;;;6.57;;
10687;SDS011;5392;42.688;23.298;2023-04-01T04:45:50;10.88;;;5.95;;
10687;SDS011;5392;42.688;23.298;2023-04-01T04:48:17;4.72;;;3.15;;
10687;SDS011;5392;42.688;23.298;2023-04-01T04:50:50;5.15;;;3.63;;
10687;SDS011;5392;42.688;23.298;2023-04-01T04:53:17;10.43;;;5.15;;
10687;SDS011;5392;42.688;23.298;2023-04-01T04:55:45;8.98;;;5.03;;
10687;SDS011;5392;42.688;23.298;2023-04-01T04:58:14;7.45;;;4.47;;
10687;SDS011;5392;42.688;23.298;2023-04-01T05:00:42;15.57;;;6.38;;
10687;SDS011;5392;42.688;23.298;2023-04-01T05:03:09;8.88;;;3.55;;
10687;SDS011;5392;42.688;23.298;2023-04-01T05:05:37;8.40;;;3.83;;
10687;SDS011;5392;42.688;23.298;2023-04-01T05:08:04;3.28;;;2.92;;
10687;SDS011;5392;42.688;23.298;2023-04-01T05:10:31;5.30;;;2.60;;
10687;SDS011;5392;42.688;23.298;2023-04-01T05:12:58;3.72;;;1.73;;
10687;SDS011;5392;42.688;23.298;2023-04-01T05:15:24;10.25;;;2.15;;
10687;SDS011;5392;42.688;23.298;2023-04-01T05:17:51;9.57;;;3.15;;
10687;SDS011;5392;42.688;23.298;2023-04-01T05:20:18;12.52;;;3.72;;
10687;SDS011;5392;42.688;23.298;2023-04-01T05:22:44;6.40;;;2.30;;
10687;SDS011;5392;42.688;23.298;2023-04-01T05:25:11;10.52;;;5.55;;
10687;SDS011;5392;42.688;23.298;2023-04-01T05:27:38;7.38;;;5.82;;
10687;SDS011;5392;42.688;23.298;2023-04-01T05:30:05;14.27;;;8.60;;
10687;SDS011;5392;42.688;23.298;2023-04-01T05:32:32;13.38;;;6.72;;
10687;SDS011;5392;42.688;23.298;2023-04-01T05:34:59;15.80;;;7.90;;
10687;SDS011;5392;42.688;23.298;2023-04-01T05:37:25;11.52;;;4.72;;
10687;SDS011;5392;42.688;23.298;2023-04-01T05:39:52;10.88;;;4.00;;
10687;SDS011;5392;42.688;23.298;2023-04-01T05:42:19;10.98;;;4.47;;
10687;SDS011;5392;42.688;23.298;2023-04-01T05:44:45;11.63;;;4.55;;
10687;SDS011;5392;42.688;23.298;2023-04-01T05:47:12;9.40;;;4.68;;
10687;SDS011;5392;42.688;23.298;2023-04-01T05:49:39;5.30;;;4.40;;
10687;SDS011;5392;42.688;23.298;2023-04-01T05:52:06;9.05;;;4.13;;
10687;SDS011;5392;42.688;23.298;2023-04-01T05:54:34;16.50;;;5.97;;
10687;SDS011;5392;42.688;23.298;2023-04-01T05:57:01;5.38;;;2.03;;
10687;SDS011;5392;42.688;23.298;2023-04-01T05:59:28;5.53;;;2.65;;
10687;SDS011;5392;42.688;23.298;2023-04-01T06:01:57;5.95;;;2.10;;
10687;SDS011;5392;42.688;23.298;2023-04-01T06:04:26;2.63;;;1.42;;
10687;SDS011;5392;42.688;23.298;2023-04-01T06:06:58;4.75;;;2.08;;
10687;SDS011;5392;42.688;23.298;2023-04-01T06:09:29;6.80;;;1.60;;
10687;SDS011;5392;42.688;23.298;2023-04-01T06:14:42;3.40;;;1.60;;
10687;SDS011;5392;42.688;23.298;2023-04-01T06:18:01;4.00;;;1.63;;
10687;SDS011;5392;42.688;23.298;2023-04-01T06:45:59;6.40;;;1.75;;
10687;SDS011;5392;42.688;23.298;2023-04-01T06:54:21;6.88;;;1.70;;
10687;SDS011;5392;42.688;23.298;2023-04-01T06:57:00;5.78;;;1.85;;
10687;SDS011;5392;42.688;23.298;2023-04-01T06:59:32;2.83;;;1.38;;
10687;SDS011;5392;42.688;23.298;2023-04-01T07:04:36;2.47;;;1.25;;
10687;SDS011;5392;42.688;23.298;2023-04-01T07:07:19;5.10;;;1.33;;
10687;SDS011;5392;42.688;23.298;2023-04-01T07:10:18;9.20;;;1.58;;
10687;SDS011;5392;42.688;23.298;2023-04-01T07:12:49;5.15;;;1.17;;
10687;SDS011;5392;42.688;23.298;2023-04-01T07:15:22;3.38;;;1.83;;
10687;SDS011;5392;42.688;23.298;2023-04-01T07:18:38;5.00;;;1.38;;
10687;SDS011;5392;42.688;23.298;2023-04-01T07:20:48;8.10;;;1.40;;
10687;SDS011;5392;42.688;23.298;2023-04-01T07:23:26;4.15;;;1.50;;
10687;SDS011;5392;42.688;23.298;2023-04-01T07:26:26;4.72;;;1.50;;
10687;SDS011;5392;42.688;23.298;2023-04-01T07:28:53;2.17;;;1.50;;
10687;SDS011;5392;42.688;23.298;2023-04-01T07:34:42;5.85;;;2.05;;
10687;SDS011;5392;42.688;23.298;2023-04-01T07:37:19;3.28;;;1.30;;
10687;SDS011;5392;42.688;23.298;2023-04-01T07:40:17;4.15;;;1.60;;
10687;SDS011;5392;42.688;23.298;2023-04-01T07:45:48;4.97;;;1.95;;
10687;SDS011;5392;42.688;23.298;2023-04-01T08:02:44;13.43;;;2.33;;
10687;SDS011;5392;42.688;23.298;2023-04-01T08:05:31;5.65;;;1.75;;
10687;SDS011;5392;42.688;23.298;2023-04-01T08:10:49;9.20;;;3.47;;
10687;SDS011;5392;42.688;23.298;2023-04-01T08:16:06;7.63;;;1.92;;
10687;SDS011;5392;42.688;23.298;2023-04-01T08:21:41;8.02;;;2.13;;
10687;SDS011;5392;42.688;23.298;2023-04-01T08:24:16;7.28;;;2.28;;
10687;SDS011;5392;42.688;23.298;2023-04-01T08:26:55;5.88;;;2.20;;
10687;SDS011;5392;42.688;23.298;2023-04-01T08:29:30;7.68;;;2.00;;
10687;SDS011;5392;42.688;23.298;2023-04-01T08:32:15;5.85;;;2.45;;
10687;SDS011;5392;42.688;23.298;2023-04-01T08:34:51;6.95;;;2.72;;
10687;SDS011;5392;42.688;23.298;2023-04-01T08:37:31;7.93;;;2.72;;
10687;SDS011;5392;42.688;23.298;2023-04-01T08:40:24;4.95;;;2.10;;
10687;SDS011;5392;42.688;23.298;2023-04-01T08:48:48;6.70;;;2.30;;
10687;SDS011;5392;42.688;23.298;2023-04-01T08:54:18;6.50;;;1.77;;
10687;SDS011;5392;42.688;23.298;2023-04-01T08:57:13;4.30;;;1.00;;
10687;SDS011;5392;42.688;23.298;2023-04-01T09:13:15;4.45;;;0.65;;
10687;SDS011;5392;42.688;23.298;2023-04-01T09:15:58;1.92;;;0.70;;
10687;SDS011;5392;42.688;23.298;2023-04-01T09:24:41;4.82;;;0.68;;
10687;SDS011;5392;42.688;23.298;2023-04-01T09:27:33;4.93;;;0.80;;
10687;SDS011;5392;42.688;23.298;2023-04-01T09:30:33;10.98;;;0.93;;
10687;SDS011;5392;42.688;23.298;2023-04-01T09:39:13;5.05;;;1.08;;
10687;SDS011;5392;42.688;23.298;2023-04-01T09:50:29;3.13;;;0.50;;
10687;SDS011;5392;42.688;23.298;2023-04-01T10:06:57;4.30;;;0.60;;
10687;SDS011;5392;42.688;23.298;2023-04-01T10:12:49;5.00;;;0.73;;
10687;SDS011;5392;42.688;23.298;2023-04-01T10:18:16;4.57;;;1.10;;
10687;SDS011;5392;42.688;23.298;2023-04-01T10:26:18;2.95;;;0.52;;
10687;SDS011;5392;42.688;23.298;2023-04-01T10:32:11;7.07;;;0.75;;
10687;SDS011;5392;42.688;23.298;2023-04-01T10:34:56;5.40;;;0.60;;
10687;SDS011;5392;42.688;23.298;2023-04-01T11:03:44;2.70;;;0.70;;
10687;SDS011;5392;42.688;23.298;2023-04-01T11:12:21;4.82;;;0.88;;
10687;SDS011;5392;42.688;23.298;2023-04-01T11:17:52;3.83;;;0.70;;
10687;SDS011;5392;42.688;23.298;2023-04-01T11:53:34;5.60;;;0.93;;
10687;SDS011;5392;42.688;23.298;2023-04-01T12:07:27;7.15;;;0.70;;
10687;SDS011;5392;42.688;23.298;2023-04-01T12:10:17;16.60;;;1.27;;
10687;SDS011;5392;42.688;23.298;2023-04-01T12:15:36;7.45;;;1.45;;
10687;SDS011;5392;42.688;23.298;2023-04-01T12:29:53;6.85;;;1.33;;
10687;SDS011;5392;42.688;23.298;2023-04-01T12:35:53;5.03;;;1.00;;
10687;SDS011;5392;42.688;23.298;2023-04-01T12:41:37;5.60;;;0.90;;
10687;SDS011;5392;42.688;23.298;2023-04-01T12:44:58;3.17;;;1.20;;
10687;SDS011;5392;42.688;23.298;2023-04-01T12:47:26;1.50;;;0.80;;
10687;SDS011;5392;42.688;23.298;2023-04-01T12:52:57;2.03;;;0.70;;
10687;SDS011;5392;42.688;23.298;2023-04-01T13:06:28;4.53;;;1.05;;
10687;SDS011;5392;42.688;23.298;2023-04-01T13:17:21;2.72;;;1.10;;
10687;SDS011;5392;42.688;23.298;2023-04-01T13:20:14;3.95;;;1.77;;
10687;SDS011;5392;42.688;23.298;2023-04-01T13:22:51;5.15;;;2.17;;
10687;SDS011;5392;42.688;23.298;2023-04-01T13:25:27;2.50;;;1.10;;
10687;SDS011;5392;42.688;23.298;2023-04-01T13:28:20;3.25;;;1.27;;
10687;SDS011;5392;42.688;23.298;2023-04-01T13:36:17;3.10;;;0.60;;
10687;SDS011;5392;42.688;23.298;2023-04-01T13:38:53;3.72;;;0.80;;
10687;SDS011;5392;42.688;23.298;2023-04-01T13:44:28;2.70;;;0.70;;
10687;SDS011;5392;42.688;23.298;2023-04-01T14:03:48;0.50;;;0.20;;
10687;SDS011;5392;42.688;23.298;2023-04-01T14:06:40;1.05;;;0.20;;
10687;SDS011;5392;42.688;23.298;2023-04-01T14:09:28;0.20;;;0.20;;
10687;SDS011;5392;42.688;23.298;2023-04-01T14:15:26;2.00;;;0.25;;
10687;SDS011;5392;42.688;23.298;2023-04-01T14:26:40;0.50;;;0.22;;
10687;SDS011;5392;42.688;23.298;2023-04-01T14:29:58;2.33;;;0.38;;
10687;SDS011;5392;42.688;23.298;2023-04-01T14:52:05;2.03;;;0.30;;
10687;SDS011;5392;42.688;23.298;2023-04-01T14:54:51;1.00;;;0.20;;
10687;SDS011;5392;42.688;23.298;2023-04-01T14:57:26;2.20;;;0.30;;
10687;SDS011;5392;42.688;23.298;2023-04-01T15:05:32;1.00;;;0.10;;
10687;SDS011;5392;42.688;23.298;2023-04-01T15:08:33;2.40;;;0.40;;
10687;SDS011;5392;42.688;23.298;2023-04-01T15:11:47;1.67;;;0.30;;
10687;SDS011;5392;42.688;23.298;2023-04-01T15:23:43;3.00;;;0.90;;
10687;SDS011;5392;42.688;23.298;2023-04-01T15:26:16;3.60;;;0.90;;
10687;SDS011;5392;42.688;23.298;2023-04-01T15:32:16;3.45;;;0.70;;
10687;SDS011;5392;42.688;23.298;2023-04-01T15:34:43;1.90;;;1.20;;
10687;SDS011;5392;42.688;23.298;2023-04-01T15:37:37;3.50;;;0.80;;
10687;SDS011;5392;42.688;23.298;2023-04-01T15:40:30;2.67;;;0.60;;
10687;SDS011;5392;42.688;23.298;2023-04-01T15:54:06;0.10;;;0.10;;
10687;SDS011;5392;42.688;23.298;2023-04-01T16:02:21;0.50;;;0.50;;
10687;SDS011;5392;42.688;23.298;2023-04-01T16:05:30;0.60;;;0.50;;
10687;SDS011;5392;42.688;23.298;2023-04-01T16:21:35;0.98;;;0.95;;
10687;SDS011;5392;42.688;23.298;2023-04-01T16:27:11;1.25;;;1.25;;
10687;SDS011;5392;42.688;23.298;2023-04-01T16:29:49;1.58;;;1.48;;
10687;SDS011;5392;42.688;23.298;2023-04-01T16:35:23;2.05;;;1.38;;
10687;SDS011;5392;42.688;23.298;2023-04-01T16:40:24;1.55;;;1.45;;
10687;SDS011;5392;42.688;23.298;2023-04-01T16:46:19;3.72;;;1.38;;
10687;SDS011;5392;42.688;23.298;2023-04-01T16:51:21;2.70;;;2.35;;
10687;SDS011;5392;42.688;23.298;2023-04-01T16:53:52;0.93;;;0.85;;
10687;SDS011;5392;42.688;23.298;2023-04-01T16:56:36;1.05;;;0.50;;
10687;SDS011;5392;42.688;23.298;2023-04-01T17:07:32;1.38;;;0.40;;
10687;SDS011;5392;42.688;23.298;2023-04-01T17:10:10;0.68;;;0.40;;
10687;SDS011;5392;42.688;23.298;2023-04-01T17:21:04;0.30;;;0.30;;
10687;SDS011;5392;42.688;23.298;2023-04-01T17:28:58;0.93;;;0.30;;
10687;SDS011;5392;42.688;23.298;2023-04-01T17:31:46;0.32;;;0.30;;
10687;SDS011;5392;42.688;23.298;2023-04-01T17:34:54;0.93;;;0.50;;
10687;SDS011;5392;42.688;23.298;2023-04-01T17:40:32;0.38;;;0.38;;
10687;SDS011;5392;42.688;23.298;2023-04-01T17:52:03;0.43;;;0.43;;
10687;SDS011;5392;42.688;23.298;2023-04-01T17:54:46;0.40;;;0.40;;
10687;SDS011;5392;42.688;23.298;2023-04-01T18:02:47;3.60;;;3.30;;
10687;SDS011;5392;42.688;23.298;2023-04-01T18:08:12;1.60;;;1.50;;
10687;SDS011;5392;42.688;23.298;2023-04-01T18:18:52;0.60;;;0.60;;
10687;SDS011;5392;42.688;23.298;2023-04-01T18:24:35;0.80;;;0.80;;
10687;SDS011;5392;42.688;23.298;2023-04-01T18:35:19;1.35;;;1.35;;
10687;SDS011;5392;42.688;23.298;2023-04-01T18:40:34;1.60;;;1.60;;
10687;SDS011;5392;42.688;23.298;2023-04-01T18:43:21;2.15;;;2.05;;
10687;SDS011;5392;42.688;23.298;2023-04-01T18:45:51;1.50;;;1.50;;
10687;SDS011;5392;42.688;23.298;2023-04-01T18:48:46;2.40;;;2.30;;
10687;SDS011;5392;42.688;23.298;2023-04-01T18:51:26;2.20;;;2.10;;
10687;SDS011;5392;42.688;23.298;2023-04-01T18:56:41;3.70;;;2.72;;
10687;SDS011;5392;42.688;23.298;2023-04-01T18:59:27;3.97;;;3.03;;
10687;SDS011;5392;42.688;23.298;2023-04-01T19:13:15;2.25;;;1.20;;
10687;SDS011;5392;42.688;23.298;2023-04-01T19:22:11;3.38;;;1.00;;
10687;SDS011;5392;42.688;23.298;2023-04-01T19:25:06;1.17;;;0.50;;
10687;SDS011;5392;42.688;23.298;2023-04-01T19:28:45;0.30;;;0.30;;
10687;SDS011;5392;42.688;23.298;2023-04-01T19:31:08;0.40;;;0.32;;
10687;SDS011;5392;42.688;23.298;2023-04-01T19:50:20;0.30;;;0.30;;
10687;SDS011;5392;42.688;23.298;2023-04-01T19:52:50;0.20;;;0.20;;
10687;SDS011;5392;42.688;23.298;2023-04-01T20:00:50;1.45;;;0.30;;
10687;SDS011;5392;42.688;23.298;2023-04-01T20:10:52;1.17;;;0.30;;
10687;SDS011;5392;42.688;23.298;2023-04-01T20:16:12;1.08;;;0.30;;
10687;SDS011;5392;42.688;23.298;2023-04-01T20:18:59;0.30;;;0.30;;
10687;SDS011;5392;42.688;23.298;2023-04-01T20:26:41;1.95;;;0.50;;
10687;SDS011;5392;42.688;23.298;2023-04-01T20:29:22;0.73;;;0.40;;
10687;SDS011;5392;42.688;23.298;2023-04-01T20:32:11;2.05;;;0.30;;
10687;SDS011;5392;42.688;23.298;2023-04-01T20:51:54;0.75;;;0.20;;
10687;SDS011;5392;42.688;23.298;2023-04-01T20:54:41;0.30;;;0.30;;
10687;SDS011;5392;42.688;23.298;2023-04-01T20:57:41;0.32;;;0.30;;
10687;SDS011;5392;42.688;23.298;2023-04-01T21:00:22;0.30;;;0.30;;
10687;SDS011;5392;42.688;23.298;2023-04-01T21:12:02;2.20;;;0.70;;
10687;SDS011;5392;42.688;23.298;2023-04-01T21:39:55;0.30;;;0.30;;
10687;SDS011;5392;42.688;23.298;2023-04-01T21:42:57;0.20;;;0.20;;
10687;SDS011;5392;42.688;23.298;2023-04-01T21:48:50;0.30;;;0.30;;
10687;SDS011;5392;42.688;23.298;2023-04-01T21:54:21;0.93;;;0.30;;
10687;SDS011;5392;42.688;23.298;2023-04-01T22:11:22;0.95;;;0.30;;
10687;SDS011;5392;42.688;23.298;2023-04-01T22:14:16;0.30;;;0.30;;
10687;SDS011;5392;42.688;23.298;2023-04-01T22:16:56;0.52;;;0.30;;
10687;SDS011;5392;42.688;23.298;2023-04-01T22:32:50;1.58;;;0.75;;
10687;SDS011;5392;42.688;23.298;2023-04-01T22:40:35;2.67;;;1.20;;
10687;SDS011;5392;42.688;23.298;2023-04-01T22:43:11;2.95;;;0.70;;
10687;SDS011;5392;42.688;23.298;2023-04-01T22:56:46;0.20;;;0.20;;
10687;SDS011;5392;42.688;23.298;2023-04-01T22:59:19;0.43;;;0.30;;
10687;SDS011;5392;42.688;23.298;2023-04-01T23:01:49;2.13;;;0.40;;
10687;SDS011;5392;42.688;23.298;2023-04-01T23:04:23;0.73;;;0.50;;
10687;SDS011;5392;42.688;23.298;2023-04-01T23:06:54;1.27;;;0.60;;
10687;SDS011;5392;42.688;23.298;2023-04-01T23:09:30;0.35;;;0.35;;
10687;SDS011;5392;42.688;23.298;2023-04-01T23:22:49;0.40;;;0.17;;
10687;SDS011;5392;42.688;23.298;2023-04-01T23:28:05;0.10;;;0.10;;
10687;SDS011;5392;42.688;23.298;2023-04-01T23:33:27;0.75;;;0.10;;
10687;SDS011;5392;42.688;23.298;2023-04-01T23:38:39;0.30;;;0.10;;
10687;SDS011;5392;42.688;23.298;2023-04-01T23:41:17;0.10;;;0.10;;
10687;SDS011;5392;42.688;23.298;2023-04-01T23:43:48;0.40;;;0.10;;
10687;SDS011;5392;42.688;23.298;2023-04-01T23:46:25;1.08;;;0.10;;
10687;SDS011;5392;42.688;23.298;2023-04-01T23:48:52;0.35;;;0.10;;
10687;SDS011;5392;42.688;23.298;2023-04-01T23:51:23;0.13;;;0.00;;
10687;SDS011;5392;42.688;23.298;2023-04-01T23:54:03;0.00;;;0.00;;
10687;SDS011;5392;42.688;23.298;2023-04-01T23:56:54;0.40;;;0.03;;
